createdAt,value
2022-08-05T00:00:00.317Z,26.87
2022-08-05T00:02:07.662Z,26.79
2022-08-05T00:04:10.854Z,26.77
2022-08-05T00:06:27.809Z,26.73
2022-08-05T00:08:36.318Z,26.21
2022-08-05T00:10:39.233Z,25.94
2022-08-05T00:12:55.671Z,25.78
2022-08-05T00:15:53.915Z,25.60
2022-08-05T00:17:24.001Z,25.57
2022-08-05T00:19:33.460Z,25.62
2022-08-05T00:21:36.861Z,25.55
2022-08-05T00:23:45.798Z,25.59
2022-08-05T00:25:49.794Z,25.38
2022-08-05T00:27:56.769Z,25.33
2022-08-05T00:30:03.165Z,25.33
2022-08-05T00:32:12.597Z,25.02
2022-08-05T00:34:56.798Z,25.19
2022-08-05T00:37:10.726Z,25.38
2022-08-05T00:39:03.901Z,25.30
2022-08-05T00:41:11.628Z,25.04
2022-08-05T00:43:15.339Z,24.85
2022-08-05T00:45:28.210Z,24.93
2022-08-05T00:47:56.817Z,24.82
2022-08-05T00:50:00.460Z,24.80
2022-08-05T00:52:03.276Z,24.83
2022-08-05T00:54:06.306Z,24.89
2022-08-05T00:56:09.457Z,25.04
2022-08-05T00:58:13.284Z,25.00
2022-08-05T01:00:16.931Z,25.07
2022-08-05T01:02:21.289Z,25.18
2022-08-05T01:04:30.212Z,25.25
2022-08-05T01:06:33.009Z,25.22
2022-08-05T01:08:43.081Z,25.31
2022-08-05T01:10:52.850Z,25.22
2022-08-05T01:13:05.389Z,25.35
2022-08-05T01:15:35.816Z,25.45
2022-08-05T01:17:46.669Z,25.52
2022-08-05T01:20:12.289Z,25.55
2022-08-05T01:22:28.905Z,25.44
2022-08-05T01:24:49.372Z,25.49
2022-08-05T01:27:19.060Z,24.71
2022-08-05T01:29:29.039Z,24.78
2022-08-05T01:31:42.745Z,24.46
2022-08-05T01:33:53.608Z,23.84
2022-08-05T01:36:00.217Z,24.25
2022-08-05T01:38:06.937Z,23.92
2022-08-05T01:40:12.386Z,24.28
2022-08-05T01:42:18.518Z,24.54
2022-08-05T01:44:24.757Z,24.19
2022-08-05T01:46:42.962Z,24.43
2022-08-05T01:48:51.202Z,24.05
2022-08-05T01:50:56.369Z,24.47
2022-08-05T01:53:02.711Z,24.51
2022-08-05T01:55:10.449Z,24.53
2022-08-05T01:58:11.162Z,24.05
2022-08-05T01:59:41.540Z,24.32
2022-08-05T02:01:54.799Z,24.22
2022-08-05T02:03:59.770Z,24.26
2022-08-05T02:06:33.576Z,24.27
2022-08-05T02:08:31.147Z,23.81
2022-08-05T02:10:42.818Z,24.04
2022-08-05T02:12:52.572Z,24.11
2022-08-05T02:15:05.510Z,24.25
2022-08-05T02:18:14.568Z,23.63
2022-08-05T02:19:47.656Z,22.91
2022-08-05T02:21:55.291Z,23.93
2022-08-05T02:24:03.016Z,24.04
2022-08-05T02:26:11.759Z,23.93
2022-08-05T02:28:16.023Z,24.02
2022-08-05T02:30:38.608Z,23.90
2022-08-05T02:33:00.355Z,23.64
2022-08-05T02:35:13.333Z,23.85
2022-08-05T02:37:18.412Z,23.87
2022-08-05T02:39:25.981Z,23.66
2022-08-05T02:41:36.355Z,22.89
2022-08-05T02:44:02.478Z,22.77
2022-08-05T02:46:16.831Z,22.76
2022-08-05T02:48:31.445Z,22.63
2022-08-05T02:50:36.068Z,22.55
2022-08-05T02:52:39.720Z,22.86
2022-08-05T02:54:50.752Z,22.75
2022-08-05T02:56:56.134Z,22.95
2022-08-05T02:59:00.790Z,23.21
2022-08-05T03:01:04.559Z,22.77
2022-08-05T03:03:10.535Z,22.51
2022-08-05T03:05:14.834Z,22.36
2022-08-05T03:07:24.722Z,22.21
2022-08-05T03:09:51.617Z,22.37
2022-08-05T03:11:58.014Z,22.67
2022-08-05T03:14:03.383Z,22.91
2022-08-05T03:16:07.657Z,22.92
2022-08-05T03:18:13.765Z,22.28
2022-08-05T03:20:20.268Z,22.31
2022-08-05T03:22:31.871Z,22.87
2022-08-05T03:24:35.513Z,23.23
2022-08-05T03:26:38.612Z,23.42
2022-08-05T03:28:41.422Z,23.40
2022-08-05T03:30:45.690Z,22.87
2022-08-05T03:32:50.437Z,22.23
2022-08-05T03:34:55.447Z,22.67
2022-08-05T03:36:58.263Z,22.81
2022-08-05T03:39:07.718Z,22.84
2022-08-05T03:41:11.096Z,21.94
2022-08-05T03:43:15.890Z,22.05
2022-08-05T03:45:57.403Z,21.87
2022-08-05T03:48:00.122Z,21.85
2022-08-05T03:50:04.648Z,21.83
2022-08-05T03:52:48.515Z,22.11
2022-08-05T03:56:01.098Z,22.45
2022-08-05T03:57:16.751Z,22.81
2022-08-05T03:59:24.780Z,22.84
2022-08-05T04:01:32.287Z,22.78
2022-08-05T04:03:38.094Z,22.58
2022-08-05T04:05:44.532Z,22.77
2022-08-05T04:07:58.004Z,22.57
2022-08-05T04:10:03.167Z,22.60
2022-08-05T04:12:23.587Z,21.99
2022-08-05T04:14:29.836Z,22.69
2022-08-05T04:16:35.382Z,22.60
2022-08-05T04:18:39.610Z,22.88
2022-08-05T04:20:44.057Z,22.61
2022-08-05T04:22:47.764Z,22.74
2022-08-05T04:24:52.616Z,20.27
2022-08-05T04:26:55.613Z,22.63
2022-08-05T04:29:07.106Z,22.84
2022-08-05T04:31:10.579Z,22.92
2022-08-05T04:33:14.027Z,22.62
2022-08-05T04:35:19.690Z,22.46
2022-08-05T04:38:01.429Z,22.88
2022-08-05T04:39:46.927Z,22.87
2022-08-05T04:41:55.997Z,22.94
2022-08-05T04:43:58.872Z,22.10
2022-08-05T04:46:04.062Z,22.71
2022-08-05T04:48:10.256Z,22.67
2022-08-05T04:50:34.469Z,21.20
2022-08-05T04:52:41.834Z,22.66
2022-08-05T04:54:49.466Z,22.60
2022-08-05T04:56:55.266Z,22.52
2022-08-05T04:59:00.252Z,22.43
2022-08-05T05:02:06.057Z,22.33
2022-08-05T05:03:45.913Z,22.83
2022-08-05T05:06:40.326Z,22.98
2022-08-05T05:08:26.558Z,23.20
2022-08-05T05:10:35.169Z,23.13
2022-08-05T05:12:37.950Z,23.25
2022-08-05T05:14:49.533Z,23.28
2022-08-05T05:16:54.568Z,23.52
2022-08-05T05:19:18.577Z,23.60
2022-08-05T05:21:20.257Z,23.66
2022-08-05T05:23:24.402Z,23.82
2022-08-05T05:25:32.776Z,23.93
2022-08-05T05:27:45.547Z,23.69
2022-08-05T05:30:04.416Z,23.93
2022-08-05T05:32:12.732Z,22.95
2022-08-05T05:34:26.602Z,24.12
2022-08-05T05:36:30.316Z,24.13
2022-08-05T05:38:35.708Z,24.23
2022-08-05T05:40:39.298Z,23.05
2022-08-05T05:42:47.015Z,24.53
2022-08-05T05:44:50.121Z,24.25
2022-08-05T05:46:52.937Z,24.58
2022-08-05T05:48:56.075Z,24.25
2022-08-05T05:50:58.872Z,24.27
2022-08-05T05:53:22.138Z,24.36
2022-08-05T05:55:52.429Z,24.23
2022-08-05T05:57:52.626Z,23.58
2022-08-05T05:59:56.044Z,24.18
2022-08-05T06:01:59.822Z,23.94
2022-08-05T06:04:03.879Z,23.97
2022-08-05T06:06:07.346Z,24.15
2022-08-05T06:08:10.540Z,24.18
2022-08-05T06:10:14.514Z,24.20
2022-08-05T06:12:20.047Z,24.32
2022-08-05T06:14:22.896Z,24.46
2022-08-05T06:16:32.715Z,24.40
2022-08-05T06:18:39.869Z,24.69
2022-08-05T06:20:42.648Z,24.82
2022-08-05T06:22:51.231Z,24.92
2022-08-05T06:24:54.315Z,25.12
2022-08-05T06:26:58.481Z,25.09
2022-08-05T06:29:03.670Z,24.95
2022-08-05T06:31:11.184Z,25.05
2022-08-05T06:33:21.413Z,25.17
2022-08-05T06:36:06.807Z,25.30
2022-08-05T06:38:11.339Z,25.16
2022-08-05T06:40:20.731Z,25.25
2022-08-05T06:42:24.164Z,25.52
2022-08-05T06:44:30.139Z,25.82
2022-08-05T06:46:33.343Z,25.63
2022-08-05T06:48:55.273Z,25.07
2022-08-05T06:51:00.420Z,25.57
2022-08-05T06:53:03.768Z,25.54
2022-08-05T06:55:14.597Z,24.73
2022-08-05T06:57:58.140Z,25.53
2022-08-05T06:59:42.540Z,25.44
2022-08-05T07:01:59.241Z,25.69
2022-08-05T07:04:03.159Z,25.85
2022-08-05T07:06:14.184Z,25.84
2022-08-05T07:08:18.078Z,25.91
2022-08-05T07:10:21.909Z,26.16
2022-08-05T07:12:53.694Z,26.21
2022-08-05T07:15:34.208Z,25.95
2022-08-05T07:18:01.237Z,25.61
2022-08-05T07:20:32.039Z,25.60
2022-08-05T07:22:29.151Z,25.95
2022-08-05T07:24:35.052Z,25.10
2022-08-05T07:26:47.340Z,25.57
2022-08-05T07:28:51.456Z,25.65
2022-08-05T07:30:55.610Z,25.58
2022-08-05T07:32:58.621Z,25.71
2022-08-05T07:35:01.450Z,25.89
2022-08-05T07:37:24.458Z,25.77
2022-08-05T07:40:04.191Z,25.85
2022-08-05T07:42:13.932Z,25.98
2022-08-05T07:44:19.039Z,26.05
2022-08-05T07:46:25.137Z,26.11
2022-08-05T07:49:01.878Z,26.15
2022-08-05T07:50:51.563Z,26.16
2022-08-05T07:52:54.442Z,26.52
2022-08-05T07:54:57.562Z,25.57
2022-08-05T07:57:22.860Z,26.52
2022-08-05T07:59:38.908Z,26.27
2022-08-05T08:01:52.128Z,26.16
2022-08-05T08:04:00.333Z,26.40
2022-08-05T08:06:04.612Z,26.48
2022-08-05T08:08:12.253Z,26.48
2022-08-05T08:10:15.461Z,26.11
2022-08-05T08:12:37.350Z,25.85
2022-08-05T08:14:42.695Z,26.48
2022-08-05T08:16:53.639Z,26.74
2022-08-05T08:18:56.719Z,26.81
2022-08-05T08:21:03.833Z,27.23
2022-08-05T08:23:07.522Z,27.18
2022-08-05T08:26:00.108Z,26.74
2022-08-05T08:27:54.091Z,26.43
2022-08-05T08:30:05.066Z,27.15
2022-08-05T08:32:27.897Z,27.29
2022-08-05T08:34:33.259Z,27.71
2022-08-05T08:36:47.611Z,27.59
2022-08-05T08:38:56.115Z,27.79
2022-08-05T08:41:01.524Z,27.91
2022-08-05T08:44:56.416Z,28.01
2022-08-05T08:45:29.944Z,27.82
2022-08-05T08:48:05.481Z,27.72
2022-08-05T08:50:13.032Z,27.29
2022-08-05T08:52:26.524Z,27.64
2022-08-05T08:54:29.683Z,28.16
2022-08-05T08:56:33.326Z,28.58
2022-08-05T08:58:44.672Z,28.74
2022-08-05T09:00:51.520Z,28.74
2022-08-05T09:02:56.619Z,28.45
2022-08-05T09:05:17.917Z,28.85
2022-08-05T09:07:28.779Z,29.25
2022-08-05T09:09:35.474Z,29.47
2022-08-05T09:11:52.649Z,28.88
2022-08-05T09:14:09.264Z,29.81
2022-08-05T09:16:21.328Z,29.98
2022-08-05T09:18:31.435Z,29.70
2022-08-05T09:20:36.327Z,29.53
2022-08-05T09:23:07.778Z,29.23
2022-08-05T09:25:13.869Z,30.03
2022-08-05T09:28:04.480Z,30.52
2022-08-05T09:30:02.255Z,30.31
2022-08-05T09:32:43.021Z,30.54
2022-08-05T09:34:49.301Z,30.61
2022-08-05T09:36:54.944Z,29.99
2022-08-05T09:39:01.326Z,30.01
2022-08-05T09:41:07.269Z,30.00
2022-08-05T09:43:28.045Z,30.61
2022-08-05T09:46:07.604Z,31.06
2022-08-05T09:48:21.060Z,31.53
2022-08-05T09:50:38.814Z,31.84
2022-08-05T09:52:48.418Z,31.83
2022-08-05T09:54:58.775Z,31.92
2022-08-05T09:57:02.037Z,31.99
2022-08-05T09:59:07.049Z,32.05
2022-08-05T10:01:15.613Z,32.13
2022-08-05T10:03:51.825Z,31.92
2022-08-05T10:06:15.682Z,31.83
2022-08-05T10:08:37.769Z,31.47
2022-08-05T10:10:54.552Z,31.27
2022-08-05T10:13:00.152Z,32.01
2022-08-05T10:15:20.854Z,32.05
2022-08-05T10:17:37.366Z,32.85
2022-08-05T10:20:03.796Z,33.18
2022-08-05T10:22:09.106Z,33.25
2022-08-05T10:24:19.761Z,33.18
2022-08-05T10:26:32.619Z,33.29
2022-08-05T10:28:50.897Z,33.31
2022-08-05T10:32:47.817Z,33.35
2022-08-05T10:33:28.824Z,33.08
2022-08-05T10:35:33.782Z,33.42
2022-08-05T10:37:45.808Z,33.52
2022-08-05T10:40:03.116Z,33.69
2022-08-05T10:42:33.402Z,33.56
2022-08-05T10:44:39.170Z,33.70
2022-08-05T10:46:47.012Z,33.90
2022-08-05T10:49:02.699Z,34.08
2022-08-05T10:51:22.009Z,34.32
2022-08-05T10:53:54.911Z,34.38
2022-08-05T10:56:14.906Z,34.24
2022-08-05T10:58:36.015Z,34.34
2022-08-05T11:00:55.425Z,34.70
2022-08-05T11:03:23.251Z,34.41
2022-08-05T11:05:31.560Z,34.92
2022-08-05T11:08:02.605Z,34.96
2022-08-05T11:10:04.131Z,33.70
2022-08-05T11:12:45.351Z,34.92
2022-08-05T11:15:19.842Z,35.61
2022-08-05T11:17:57.171Z,35.99
2022-08-05T11:20:11.436Z,35.60
2022-08-05T11:22:42.764Z,36.02
2022-08-05T11:24:50.763Z,34.28
2022-08-05T11:27:50.886Z,36.15
2022-08-05T11:30:00.828Z,36.09
2022-08-05T11:32:26.371Z,34.99
2022-08-05T11:34:47.202Z,34.54
2022-08-05T11:36:55.047Z,34.29
2022-08-05T11:38:59.858Z,34.98
2022-08-05T11:41:34.314Z,35.27
2022-08-05T11:44:00.890Z,36.40
2022-08-05T11:46:27.191Z,36.27
2022-08-05T11:48:14.730Z,36.66
2022-08-05T11:50:17.827Z,37.07
2022-08-05T11:52:29.264Z,36.40
2022-08-05T11:54:34.989Z,37.02
2022-08-05T11:56:50.291Z,36.99
2022-08-05T11:58:56.304Z,37.00
2022-08-05T12:01:03.474Z,36.12
2022-08-05T12:03:29.650Z,36.97
2022-08-05T12:05:39.818Z,37.55
2022-08-05T12:08:07.814Z,38.00
2022-08-05T12:10:13.741Z,38.27
2022-08-05T12:12:23.258Z,38.10
2022-08-05T12:14:39.309Z,38.12
2022-08-05T12:16:48.285Z,38.06
2022-08-05T12:18:53.109Z,38.57
2022-08-05T12:20:56.798Z,38.74
2022-08-05T12:23:09.491Z,39.01
2022-08-05T12:25:14.206Z,39.07
2022-08-05T12:27:32.886Z,38.83
2022-08-05T12:29:39.079Z,37.95
2022-08-05T12:31:52.984Z,37.54
2022-08-05T12:33:57.344Z,37.77
2022-08-05T12:36:02.294Z,37.82
2022-08-05T12:38:07.347Z,37.95
2022-08-05T12:40:26.533Z,38.42
2022-08-05T12:42:32.059Z,37.98
2022-08-05T12:44:35.216Z,38.57
2022-08-05T12:46:39.230Z,39.09
2022-08-05T12:48:43.499Z,37.47
2022-08-05T12:51:21.838Z,38.32
2022-08-05T12:53:37.038Z,38.74
2022-08-05T12:55:42.360Z,38.44
2022-08-05T12:58:38.657Z,38.85
2022-08-05T13:02:02.844Z,39.68
2022-08-05T13:02:44.096Z,39.81
2022-08-05T13:04:56.337Z,39.99
2022-08-05T13:07:01.097Z,40.14
2022-08-05T13:09:08.745Z,40.48
2022-08-05T13:12:01.139Z,40.70
2022-08-05T13:14:06.133Z,40.22
2022-08-05T13:16:12.548Z,39.97
2022-08-05T13:18:19.741Z,39.06
2022-08-05T13:20:34.181Z,39.14
2022-08-05T13:22:39.076Z,38.19
2022-08-05T13:24:57.556Z,38.37
2022-08-05T13:27:01.193Z,38.08
2022-08-05T13:29:05.143Z,37.80
2022-08-05T13:31:11.158Z,38.16
2022-08-05T13:34:22.453Z,38.64
2022-08-05T13:35:47.531Z,38.88
2022-08-05T13:37:55.758Z,39.57
2022-08-05T13:40:16.699Z,38.60
2022-08-05T13:42:22.532Z,39.51
2022-08-05T13:44:27.990Z,40.14
2022-08-05T13:46:50.941Z,39.57
2022-08-05T13:48:57.716Z,38.28
2022-08-05T13:51:08.461Z,37.49
2022-08-05T13:53:15.737Z,36.03
2022-08-05T13:55:41.864Z,35.77
2022-08-05T13:57:48.531Z,35.41
2022-08-05T13:59:55.424Z,35.92
2022-08-05T14:02:01.335Z,35.93
2022-08-05T14:04:22.349Z,35.52
2022-08-05T14:06:30.899Z,35.43
2022-08-05T14:08:33.745Z,34.58
2022-08-05T14:10:38.785Z,34.91
2022-08-05T14:12:48.630Z,35.00
2022-08-05T14:14:52.165Z,34.44
2022-08-05T14:16:55.373Z,33.82
2022-08-05T14:19:04.483Z,33.41
2022-08-05T14:22:07.517Z,31.52
2022-08-05T14:23:36.353Z,31.74
2022-08-05T14:25:44.957Z,31.79
2022-08-05T14:27:49.373Z,30.64
2022-08-05T14:29:52.227Z,30.72
2022-08-05T14:32:13.025Z,31.15
2022-08-05T14:34:17.880Z,30.55
2022-08-05T14:36:26.560Z,26.16
2022-08-05T14:38:34.061Z,24.23
2022-08-05T14:40:38.903Z,24.17
2022-08-05T14:42:42.361Z,24.27
2022-08-05T14:44:45.818Z,22.98
2022-08-05T14:46:48.585Z,25.46
2022-08-05T14:48:51.710Z,26.01
2022-08-05T14:50:55.810Z,26.24
2022-08-05T14:53:00.229Z,27.22
2022-08-05T14:55:06.386Z,27.63
2022-08-05T14:57:13.464Z,27.76
2022-08-05T14:59:16.850Z,28.43
2022-08-05T15:01:24.179Z,29.21
2022-08-05T15:03:42.379Z,29.18
2022-08-05T15:06:07.049Z,29.97
2022-08-05T15:08:17.930Z,29.57
2022-08-05T15:10:34.923Z,29.60
2022-08-05T15:12:58.017Z,29.11
2022-08-05T15:15:00.673Z,28.90
2022-08-05T15:17:04.842Z,29.75
2022-08-05T15:19:07.727Z,30.23
2022-08-05T15:21:26.069Z,30.44
2022-08-05T15:23:33.259Z,30.56
2022-08-05T15:25:51.637Z,30.50
2022-08-05T15:27:56.656Z,30.62
2022-08-05T15:29:59.469Z,31.47
2022-08-05T15:32:03.285Z,31.97
2022-08-05T15:34:31.952Z,31.92
2022-08-05T15:36:29.634Z,32.13
2022-08-05T15:38:40.840Z,32.61
2022-08-05T15:41:03.466Z,32.50
2022-08-05T15:43:19.758Z,32.26
2022-08-05T15:45:38.896Z,29.95
2022-08-05T15:47:43.703Z,30.75
2022-08-05T15:49:56.605Z,32.09
2022-08-05T15:52:13.444Z,32.82
2022-08-05T15:54:19.305Z,32.92
2022-08-05T15:56:23.842Z,33.09
2022-08-05T15:58:28.652Z,29.33
2022-08-05T16:00:50.920Z,31.81
2022-08-05T16:02:54.594Z,31.68
2022-08-05T16:04:57.767Z,31.63
2022-08-05T16:07:00.605Z,31.81
2022-08-05T16:09:04.155Z,31.21
2022-08-05T16:11:07.323Z,31.37
2022-08-05T16:13:12.349Z,31.35
2022-08-05T16:15:22.559Z,29.94
2022-08-05T16:17:25.612Z,31.39
2022-08-05T16:20:03.062Z,30.58
2022-08-05T16:22:00.360Z,29.64
2022-08-05T16:24:04.361Z,29.41
2022-08-05T16:26:12.006Z,29.63
2022-08-05T16:28:17.938Z,30.20
2022-08-05T16:30:26.038Z,30.20
2022-08-05T16:32:29.921Z,29.96
2022-08-05T16:34:33.043Z,29.52
2022-08-05T16:36:36.304Z,29.36
2022-08-05T16:38:54.704Z,28.79
2022-08-05T16:41:01.427Z,29.35
2022-08-05T16:43:04.494Z,28.87
2022-08-05T16:46:04.153Z,26.94
2022-08-05T16:47:40.839Z,28.85
2022-08-05T16:49:56.650Z,28.07
2022-08-05T16:51:59.471Z,27.50
2022-08-05T16:54:16.119Z,28.21
2022-08-05T16:56:21.888Z,28.70
2022-08-05T16:58:26.153Z,28.71
2022-08-05T17:00:34.471Z,28.45
2022-08-05T17:02:38.016Z,28.27
2022-08-05T17:04:40.840Z,28.09
2022-08-05T17:06:43.759Z,28.45
2022-08-05T17:08:56.030Z,28.26
2022-08-05T17:11:00.449Z,27.48
2022-08-05T17:13:03.558Z,27.53
2022-08-05T17:15:07.598Z,27.05
2022-08-05T17:17:14.811Z,27.12
2022-08-05T17:19:18.232Z,26.79
2022-08-05T17:21:21.094Z,20.25
2022-08-05T17:24:03.113Z,26.84
2022-08-05T17:25:49.557Z,26.99
2022-08-05T17:27:54.641Z,26.77
2022-08-05T17:29:59.737Z,26.78
2022-08-05T17:32:03.641Z,26.63
2022-08-05T17:34:08.774Z,26.64
2022-08-05T17:36:32.799Z,26.34
2022-08-05T17:38:35.017Z,26.85
2022-08-05T17:40:38.352Z,26.01
2022-08-05T17:42:50.480Z,26.64
2022-08-05T17:44:54.430Z,26.51
2022-08-05T17:46:57.300Z,26.49
2022-08-05T17:49:00.282Z,25.72
2022-08-05T17:51:08.966Z,25.24
2022-08-05T17:53:12.154Z,25.12
2022-08-05T17:55:15.137Z,24.99
2022-08-05T17:57:18.520Z,24.93
2022-08-05T17:59:22.638Z,25.22
2022-08-05T18:01:26.439Z,25.16
2022-08-05T18:03:59.024Z,25.08
2022-08-05T18:06:01.960Z,24.99
2022-08-05T18:08:06.665Z,24.96
2022-08-05T18:10:20.363Z,24.91
2022-08-05T18:12:24.710Z,24.69
2022-08-05T18:14:27.830Z,24.77
2022-08-05T18:16:31.624Z,25.03
2022-08-05T18:18:39.612Z,24.72
2022-08-05T18:20:42.783Z,24.91
2022-08-05T18:22:54.765Z,24.37
2022-08-05T18:25:01.469Z,24.78
2022-08-05T18:27:04.368Z,24.48
2022-08-05T18:29:16.758Z,24.52
2022-08-05T18:31:19.977Z,23.89
2022-08-05T18:33:24.174Z,24.07
2022-08-05T18:35:49.479Z,24.29
2022-08-05T18:37:49.915Z,23.67
2022-08-05T18:41:50.740Z,23.71
2022-08-05T18:42:22.725Z,23.06
2022-08-05T18:44:35.133Z,23.63
2022-08-05T18:46:50.584Z,23.02
2022-08-05T18:48:53.647Z,23.25
2022-08-05T18:52:04.668Z,23.07
2022-08-05T18:53:43.105Z,22.72
2022-08-05T18:55:48.768Z,22.82
2022-08-05T18:57:54.017Z,21.92
2022-08-05T19:00:13.252Z,23.30
2022-08-05T19:02:28.210Z,22.69
2022-08-05T19:04:32.911Z,22.58
2022-08-05T19:06:44.611Z,23.09
2022-08-05T19:08:48.397Z,22.62
2022-08-05T19:10:51.914Z,22.61
2022-08-05T19:12:56.052Z,21.66
2022-08-05T19:15:00.722Z,22.49
2022-08-05T19:17:06.421Z,22.03
2022-08-05T19:19:10.661Z,22.23
2022-08-05T19:21:15.843Z,22.40
2022-08-05T19:24:04.397Z,23.00
2022-08-05T19:25:43.452Z,22.90
2022-08-05T19:27:46.656Z,23.04
2022-08-05T19:29:53.962Z,22.95
2022-08-05T19:31:59.281Z,22.67
2022-08-05T19:34:02.115Z,22.74
2022-08-05T19:36:06.140Z,22.66
2022-08-05T19:38:09.601Z,22.61
2022-08-05T19:40:12.754Z,22.78
2022-08-05T19:42:18.348Z,22.41
2022-08-05T19:44:45.141Z,22.32
2022-08-05T19:46:50.653Z,21.31
2022-08-05T19:48:53.414Z,22.06
2022-08-05T19:50:56.950Z,21.87
2022-08-05T19:53:09.332Z,20.73
2022-08-05T19:56:15.203Z,22.24
2022-08-05T19:57:49.145Z,22.60
2022-08-05T20:00:02.504Z,22.19
2022-08-05T20:02:17.623Z,22.42
2022-08-05T20:04:20.657Z,22.29
2022-08-05T20:06:29.025Z,21.97
2022-08-05T20:08:32.331Z,22.41
2022-08-05T20:10:35.747Z,22.28
2022-08-05T20:12:39.728Z,22.51
2022-08-05T20:14:52.518Z,22.52
2022-08-05T20:16:58.451Z,22.82
2022-08-05T20:19:03.049Z,22.20
2022-08-05T20:21:07.231Z,21.59
2022-08-05T20:23:10.040Z,21.60
2022-08-05T20:25:15.257Z,21.80
2022-08-05T20:27:18.669Z,21.76
2022-08-05T20:29:27.292Z,22.06
2022-08-05T20:31:43.112Z,22.13
2022-08-05T20:33:54.212Z,22.01
2022-08-05T20:35:58.415Z,21.83
2022-08-05T20:38:07.648Z,22.22
2022-08-05T20:40:12.535Z,22.19
2022-08-05T20:42:15.707Z,22.29
2022-08-05T20:44:29.922Z,22.67
2022-08-05T20:46:33.683Z,21.82
2022-08-05T20:48:36.919Z,21.71
2022-08-05T20:50:42.568Z,21.45
2022-08-05T20:52:49.709Z,22.13
2022-08-05T20:55:15.828Z,22.21
2022-08-05T20:57:24.728Z,21.90
2022-08-05T21:00:10.549Z,21.46
2022-08-05T21:02:03.951Z,21.10
2022-08-05T21:04:07.202Z,21.08
2022-08-05T21:06:27.673Z,21.02
2022-08-05T21:08:41.780Z,21.31
2022-08-05T21:10:48.539Z,21.32
2022-08-05T21:13:09.006Z,21.36
2022-08-05T21:15:15.174Z,21.33
2022-08-05T21:17:17.978Z,21.02
2022-08-05T21:19:24.257Z,19.89
2022-08-05T21:21:27.050Z,21.06
2022-08-05T21:23:47.810Z,19.91
2022-08-05T21:25:51.613Z,20.67
2022-08-05T21:27:58.178Z,20.63
2022-08-05T21:30:01.768Z,21.31
2022-08-05T21:32:05.515Z,20.93
2022-08-05T21:34:08.333Z,20.57
2022-08-05T21:36:13.548Z,20.69
2022-08-05T21:38:22.258Z,21.14
2022-08-05T21:40:26.906Z,21.28
2022-08-05T21:42:31.017Z,21.20
2022-08-05T21:44:47.244Z,21.22
2022-08-05T21:46:50.025Z,21.30
2022-08-05T21:48:56.749Z,21.35
2022-08-05T21:50:59.751Z,21.32
2022-08-05T21:53:04.518Z,21.26
2022-08-05T21:55:11.524Z,20.98
2022-08-05T21:57:33.275Z,21.24
2022-08-05T22:00:01.653Z,21.79
2022-08-05T22:01:59.323Z,21.87
2022-08-05T22:04:02.173Z,21.85
2022-08-05T22:06:06.244Z,22.25
2022-08-05T22:08:22.125Z,22.20
2022-08-05T22:10:27.480Z,22.32
2022-08-05T22:12:32.090Z,22.38
2022-08-05T22:14:37.960Z,22.31
2022-08-05T22:16:51.154Z,22.31
2022-08-05T22:18:58.720Z,21.65
2022-08-05T22:21:04.190Z,21.45
2022-08-05T22:24:02.953Z,21.03
2022-08-05T22:26:10.246Z,21.04
2022-08-05T22:28:15.766Z,21.68
2022-08-05T22:30:21.117Z,21.14
2022-08-05T22:32:24.401Z,20.19
2022-08-05T22:34:30.135Z,20.85
2022-08-05T22:36:33.040Z,21.04
2022-08-05T22:38:35.903Z,21.37
2022-08-05T22:40:40.415Z,21.72
2022-08-05T22:42:53.028Z,21.83
2022-08-05T22:45:02.005Z,21.74
2022-08-05T22:47:06.570Z,21.47
2022-08-05T22:49:12.345Z,21.70
2022-08-05T22:52:06.060Z,21.48
2022-08-05T22:53:56.217Z,21.01
2022-08-05T22:55:59.291Z,21.22
2022-08-05T22:58:02.190Z,21.21
2022-08-05T23:00:08.850Z,21.32
2022-08-05T23:02:13.616Z,20.78
2022-08-05T23:04:19.786Z,20.86
2022-08-05T23:06:22.617Z,21.11
2022-08-05T23:08:29.304Z,20.77
2022-08-05T23:10:32.455Z,20.76
2022-08-05T23:12:35.228Z,20.41
2022-08-05T23:14:39.629Z,20.80
2022-08-05T23:17:05.385Z,20.66
2022-08-05T23:19:08.583Z,20.86
2022-08-05T23:21:11.612Z,20.13
2022-08-05T23:23:19.323Z,19.75
2022-08-05T23:25:53.156Z,20.39
2022-08-05T23:28:00.443Z,20.32
2022-08-05T23:30:04.311Z,20.30
2022-08-05T23:32:12.772Z,20.41
2022-08-05T23:34:24.749Z,19.87
2022-08-05T23:36:28.485Z,20.35
2022-08-05T23:38:42.838Z,20.34
2022-08-05T23:40:49.511Z,20.38
2022-08-05T23:42:53.936Z,20.20
2022-08-05T23:44:57.077Z,20.17
2022-08-05T23:47:02.499Z,19.92
2022-08-05T23:49:23.660Z,19.93
2022-08-05T23:51:28.226Z,20.24
2022-08-05T23:53:46.422Z,21.13
2022-08-05T23:55:49.887Z,21.60
2022-08-05T23:57:53.361Z,21.73
